Hector — A8YE3 — position and weather

sailwx.info

Track history (hours):
 
Tides and Currents Weather Stations Pressure Air Temp Water Temp Dewpoint Dewpoint Depression Visibility Wind Speed Wind Dir Waves Ship Positions

Hector

Last reported at 2018-Jan-06 08:38 UTC. Time now 2018-Jan-22 20:31 UTC.
Position N 41°21' E 140°16'.
Warning: this ship's position is 16 days out of date.

Length 225 m; draft 14 m.

Type: Cargo ship. MMSI: 636015034.

Date/timePositionNaut miles runAvg speedWind from/ knotsBaromVisibWave heightAir tempDewpointWater temp
2018-Jan-06 08:38N 41°21' E 140°16'211.0
2018-Jan-06 08:26N 41°22' E 140°19'511.1
2018-Jan-06 08:00N 41°25' E 140°24'510.1
2018-Jan-06 07:30N 41°28' E 140°30'510.2
2018-Jan-06 07:01N 41°30' E 140°35'611.2
2018-Jan-06 06:30N 41°34' E 140°41'510.6
2018-Jan-06 06:01N 41°37' E 140°47'5 9.7
2018-Jan-06 05:30N 41°39' E 140°53'510.5
2018-Jan-06 05:01N 41°39' E 140°60'510.7
2018-Jan-06 04:30N 41°39' E 141°07'611.2
2018-Jan-06 04:00N 41°39' E 141°15'611.1
2018-Jan-06 03:30N 41°39' E 141°22'510.6
2018-Jan-06 02:59N 41°39' E 141°29'5 9.4
2018-Jan-06 02:30N 41°38' E 141°35'  
Track history (hours):
 
Tides and Currents Weather Stations Pressure Air Temp Water Temp Dewpoint Dewpoint Depression Visibility Wind Speed Wind Dir Waves Ship Positions

Hector

Last reported at 2018-Jan-06 08:38 UTC. Time now 2018-Jan-22 20:31 UTC.
Position N 41°21' E 140°16'.
Warning: this ship's position is 16 days out of date.

Length 225 m; draft 14 m.

Type: Cargo ship. MMSI: 636015034.

Date/timePositionNaut miles runAvg speedWind from/ knotsBaromVisibWave heightAir tempDewpointWater temp
2018-Jan-06 08:38N 41°21' E 140°16'211.0
2018-Jan-06 08:26N 41°22' E 140°19'511.1
2018-Jan-06 08:00N 41°25' E 140°24'510.1
2018-Jan-06 07:30N 41°28' E 140°30'510.2
2018-Jan-06 07:01N 41°30' E 140°35'611.2
2018-Jan-06 06:30N 41°34' E 140°41'510.6
2018-Jan-06 06:01N 41°37' E 140°47'5 9.7
2018-Jan-06 05:30N 41°39' E 140°53'510.5
2018-Jan-06 05:01N 41°39' E 140°60'510.7
2018-Jan-06 04:30N 41°39' E 141°07'611.2
2018-Jan-06 04:00N 41°39' E 141°15'611.1
2018-Jan-06 03:30N 41°39' E 141°22'510.6
2018-Jan-06 02:59N 41°39' E 141°29'5 9.4
2018-Jan-06 02:30N 41°38' E 141°35'  

Dump ship's entire track history